sensor_id;sensor_type;location;lat;lon;timestamp;P1;P2;P0
46381;PMS5003;66809;52.974;-2.514;2023-04-24T00:01:48;19.3;17.8;
46381;PMS5003;66809;52.974;-2.514;2023-04-24T00:03:48;19.433333333333334;17.95;
46381;PMS5003;66809;52.974;-2.514;2023-04-24T00:05:48;19.566666666666666;18.066666666666666;
46381;PMS5003;66809;52.974;-2.514;2023-04-24T00:07:48;19.683333333333334;18.15;
46381;PMS5003;66809;52.974;-2.514;2023-04-24T00:09:48;19.666666666666668;18.1;
46381;PMS5003;66809;52.974;-2.514;2023-04-24T00:11:48;19.766666666666666;18.183333333333334;
46381;PMS5003;66809;52.974;-2.514;2023-04-24T00:13:48;20.033333333333335;18.383333333333333;
46381;PMS5003;66809;52.974;-2.514;2023-04-24T00:15:48;19.85;18.283333333333335;
46381;PMS5003;66809;52.974;-2.514;2023-04-24T00:17:48;19.8;18.333333333333332;
46381;PMS5003;66809;52.974;-2.514;2023-04-24T00:19:48;20.05;18.55;
46381;PMS5003;66809;52.974;-2.514;2023-04-24T00:21:48;19.983333333333334;18.5;
46381;PMS5003;66809;52.974;-2.514;2023-04-24T00:23:48;20.05;18.566666666666666;
46381;PMS5003;66809;52.974;-2.514;2023-04-24T00:25:49;19.8;18.25;
46381;PMS5003;66809;52.974;-2.514;2023-04-24T00:27:48;19.716666666666665;18.283333333333335;
46381;PMS5003;66809;52.974;-2.514;2023-04-24T00:29:48;19.566666666666666;18.166666666666668;
46381;PMS5003;66809;52.974;-2.514;2023-04-24T00:31:48;19.366666666666667;18.033333333333335;
46381;PMS5003;66809;52.974;-2.514;2023-04-24T00:33:48;19.25;17.95;
46381;PMS5003;66809;52.974;-2.514;2023-04-24T00:35:48;19.033333333333335;17.766666666666666;
46381;PMS5003;66809;52.974;-2.514;2023-04-24T00:37:48;18.966666666666665;17.733333333333334;
46381;PMS5003;66809;52.974;-2.514;2023-04-24T00:39:48;18.866666666666667;17.65;
46381;PMS5003;66809;52.974;-2.514;2023-04-24T00:41:48;18.85;17.65;
46381;PMS5003;66809;52.974;-2.514;2023-04-24T00:43:49;18.766666666666666;17.516666666666666;
46381;PMS5003;66809;52.974;-2.514;2023-04-24T00:45:48;18.766666666666666;17.5;
46381;PMS5003;66809;52.974;-2.514;2023-04-24T00:47:48;18.6;17.383333333333333;
46381;PMS5003;66809;52.974;-2.514;2023-04-24T00:49:48;18.516666666666666;17.25;
46381;PMS5003;66809;52.974;-2.514;2023-04-24T00:51:48;18.583333333333332;17.233333333333334;
46381;PMS5003;66809;52.974;-2.514;2023-04-24T00:53:48;18.666666666666668;17.3;
46381;PMS5003;66809;52.974;-2.514;2023-04-24T00:55:48;18.483333333333334;17.083333333333332;
46381;PMS5003;66809;52.974;-2.514;2023-04-24T00:57:48;18.316666666666666;16.866666666666667;
46381;PMS5003;66809;52.974;-2.514;2023-04-24T00:59:48;18.15;16.716666666666665;
46381;PMS5003;66809;52.974;-2.514;2023-04-24T01:01:48;18.05;16.616666666666667;
46381;PMS5003;66809;52.974;-2.514;2023-04-24T01:03:49;17.883333333333333;16.383333333333333;
46381;PMS5003;66809;52.974;-2.514;2023-04-24T01:05:48;17.766666666666666;16.283333333333335;
46381;PMS5003;66809;52.974;-2.514;2023-04-24T01:07:48;17.383333333333333;15.933333333333334;
46381;PMS5003;66809;52.974;-2.514;2023-04-24T01:09:48;17.016666666666666;15.583333333333334;
46381;PMS5003;66809;52.974;-2.514;2023-04-24T01:11:48;16.65;15.25;
46381;PMS5003;66809;52.974;-2.514;2023-04-24T01:13:48;16.283333333333335;14.9;
46381;PMS5003;66809;52.974;-2.514;2023-04-24T01:15:48;16.016666666666666;14.6;
46381;PMS5003;66809;52.974;-2.514;2023-04-24T01:17:48;15.883333333333333;14.4;
46381;PMS5003;66809;52.974;-2.514;2023-04-24T01:19:48;15.45;13.966666666666667;
46381;PMS5003;66809;52.974;-2.514;2023-04-24T01:21:48;15.25;13.766666666666667;
46381;PMS5003;66809;52.974;-2.514;2023-04-24T01:23:48;15.15;13.633333333333333;
46381;PMS5003;66809;52.974;-2.514;2023-04-24T01:25:48;15.016666666666667;13.566666666666666;
46381;PMS5003;66809;52.974;-2.514;2023-04-24T01:27:48;15.0;13.516666666666667;
46381;PMS5003;66809;52.974;-2.514;2023-04-24T01:29:48;15.1;13.566666666666666;
46381;PMS5003;66809;52.974;-2.514;2023-04-24T01:31:48;15.1;13.583333333333334;
46381;PMS5003;66809;52.974;-2.514;2023-04-24T01:33:48;15.166666666666666;13.516666666666667;
46381;PMS5003;66809;52.974;-2.514;2023-04-24T01:35:48;15.1;13.383333333333333;
46381;PMS5003;66809;52.974;-2.514;2023-04-24T01:37:48;15.1;13.4;
46381;PMS5003;66809;52.974;-2.514;2023-04-24T01:39:48;14.95;13.25;
46381;PMS5003;66809;52.974;-2.514;2023-04-24T01:41:49;14.783333333333333;13.05;
46381;PMS5003;66809;52.974;-2.514;2023-04-24T01:43:48;14.733333333333333;13.033333333333333;
46381;PMS5003;66809;52.974;-2.514;2023-04-24T01:45:48;14.7;12.95;
46381;PMS5003;66809;52.974;-2.514;2023-04-24T01:47:48;14.566666666666666;12.816666666666666;
46381;PMS5003;66809;52.974;-2.514;2023-04-24T01:49:48;14.483333333333333;12.733333333333333;
46381;PMS5003;66809;52.974;-2.514;2023-04-24T01:51:48;14.333333333333334;12.666666666666666;
46381;PMS5003;66809;52.974;-2.514;2023-04-24T01:53:48;14.3;12.633333333333333;
46381;PMS5003;66809;52.974;-2.514;2023-04-24T01:55:48;14.366666666666667;12.65;
46381;PMS5003;66809;52.974;-2.514;2023-04-24T01:57:49;14.466666666666667;12.766666666666667;
46381;PMS5003;66809;52.974;-2.514;2023-04-24T01:59:49;14.483333333333333;12.666666666666666;
46381;PMS5003;66809;52.974;-2.514;2023-04-24T02:01:48;14.35;12.533333333333333;
46381;PMS5003;66809;52.974;-2.514;2023-04-24T02:03:48;14.266666666666667;12.55;
46381;PMS5003;66809;52.974;-2.514;2023-04-24T02:05:48;14.033333333333333;12.316666666666666;
46381;PMS5003;66809;52.974;-2.514;2023-04-24T02:07:48;14.016666666666667;12.3;
46381;PMS5003;66809;52.974;-2.514;2023-04-24T02:09:48;14.0;12.266666666666667;
46381;PMS5003;66809;52.974;-2.514;2023-04-24T02:11:48;13.9;12.183333333333334;
46381;PMS5003;66809;52.974;-2.514;2023-04-24T02:13:48;13.85;12.1;
46381;PMS5003;66809;52.974;-2.514;2023-04-24T02:15:49;13.9;12.216666666666667;
46381;PMS5003;66809;52.974;-2.514;2023-04-24T02:17:48;13.766666666666667;12.1;
46381;PMS5003;66809;52.974;-2.514;2023-04-24T02:19:48;13.716666666666667;12.05;
46381;PMS5003;66809;52.974;-2.514;2023-04-24T02:21:49;13.6;11.933333333333334;
46381;PMS5003;66809;52.974;-2.514;2023-04-24T02:23:48;13.25;11.55;
46381;PMS5003;66809;52.974;-2.514;2023-04-24T02:25:49;13.066666666666666;11.316666666666666;
46381;PMS5003;66809;52.974;-2.514;2023-04-24T02:27:48;12.7;10.966666666666667;
46381;PMS5003;66809;52.974;-2.514;2023-04-24T02:29:48;12.316666666666666;10.616666666666667;
46381;PMS5003;66809;52.974;-2.514;2023-04-24T02:31:48;12.016666666666667;10.316666666666666;
46381;PMS5003;66809;52.974;-2.514;2023-04-24T02:33:48;11.816666666666666;10.183333333333334;
46381;PMS5003;66809;52.974;-2.514;2023-04-24T02:35:49;11.666666666666666;10.066666666666666;
46381;PMS5003;66809;52.974;-2.514;2023-04-24T02:37:48;11.316666666666666;9.733333333333333;
46381;PMS5003;66809;52.974;-2.514;2023-04-24T02:39:48;11.116666666666667;9.566666666666666;
46381;PMS5003;66809;52.974;-2.514;2023-04-24T02:41:49;10.95;9.45;
46381;PMS5003;66809;52.974;-2.514;2023-04-24T02:43:48;10.733333333333333;9.25;
46381;PMS5003;66809;52.974;-2.514;2023-04-24T02:45:48;10.583333333333334;9.05;
46381;PMS5003;66809;52.974;-2.514;2023-04-24T02:47:48;10.45;8.916666666666666;
46381;PMS5003;66809;52.974;-2.514;2023-04-24T02:49:48;10.116666666666667;8.683333333333334;
46381;PMS5003;66809;52.974;-2.514;2023-04-24T02:51:48;9.883333333333333;8.466666666666667;
46381;PMS5003;66809;52.974;-2.514;2023-04-24T02:53:48;9.583333333333334;8.183333333333334;
46381;PMS5003;66809;52.974;-2.514;2023-04-24T02:55:48;9.233333333333333;7.883333333333334;
46381;PMS5003;66809;52.974;-2.514;2023-04-24T02:57:48;8.75;7.5;
46381;PMS5003;66809;52.974;-2.514;2023-04-24T02:59:48;8.516666666666667;7.35;
46381;PMS5003;66809;52.974;-2.514;2023-04-24T03:01:48;8.333333333333334;7.2;
46381;PMS5003;66809;52.974;-2.514;2023-04-24T03:03:48;8.1;6.883333333333334;
46381;PMS5003;66809;52.974;-2.514;2023-04-24T03:05:48;7.95;6.766666666666667;
46381;PMS5003;66809;52.974;-2.514;2023-04-24T03:07:48;7.816666666666666;6.666666666666667;
46381;PMS5003;66809;52.974;-2.514;2023-04-24T03:09:48;7.8;6.666666666666667;
46381;PMS5003;66809;52.974;-2.514;2023-04-24T03:11:48;7.716666666666667;6.55;
46381;PMS5003;66809;52.974;-2.514;2023-04-24T03:13:49;7.533333333333333;6.466666666666667;
46381;PMS5003;66809;52.974;-2.514;2023-04-24T03:15:48;7.316666666666666;6.25;
46381;PMS5003;66809;52.974;-2.514;2023-04-24T03:17:48;7.35;6.25;
46381;PMS5003;66809;52.974;-2.514;2023-04-24T03:19:49;7.2;6.116666666666666;
46381;PMS5003;66809;52.974;-2.514;2023-04-24T03:21:49;7.133333333333334;6.083333333333333;
46381;PMS5003;66809;52.974;-2.514;2023-04-24T03:23:48;7.1;6.05;
46381;PMS5003;66809;52.974;-2.514;2023-04-24T03:25:48;7.05;6.05;
46381;PMS5003;66809;52.974;-2.514;2023-04-24T03:27:48;7.133333333333334;6.133333333333334;
46381;PMS5003;66809;52.974;-2.514;2023-04-24T03:29:48;7.033333333333333;6.066666666666666;
46381;PMS5003;66809;52.974;-2.514;2023-04-24T03:31:48;7.116666666666666;6.1;
46381;PMS5003;66809;52.974;-2.514;2023-04-24T03:33:49;6.95;6.0;
46381;PMS5003;66809;52.974;-2.514;2023-04-24T03:35:48;6.933333333333334;6.0;
46381;PMS5003;66809;52.974;-2.514;2023-04-24T03:37:48;7.0;5.966666666666667;
46381;PMS5003;66809;52.974;-2.514;2023-04-24T03:39:48;6.983333333333333;5.95;
46381;PMS5003;66809;52.974;-2.514;2023-04-24T03:41:48;6.966666666666667;5.916666666666667;
46381;PMS5003;66809;52.974;-2.514;2023-04-24T03:43:48;6.933333333333334;5.916666666666667;
46381;PMS5003;66809;52.974;-2.514;2023-04-24T03:45:48;6.85;5.916666666666667;
46381;PMS5003;66809;52.974;-2.514;2023-04-24T03:47:48;6.783333333333333;5.866666666666666;
46381;PMS5003;66809;52.974;-2.514;2023-04-24T03:49:48;6.833333333333333;5.9;
46381;PMS5003;66809;52.974;-2.514;2023-04-24T03:51:48;6.783333333333333;5.85;
46381;PMS5003;66809;52.974;-2.514;2023-04-24T03:53:48;6.716666666666667;5.783333333333333;
46381;PMS5003;66809;52.974;-2.514;2023-04-24T03:55:49;6.7;5.816666666666666;
46381;PMS5003;66809;52.974;-2.514;2023-04-24T03:57:48;6.766666666666667;5.833333333333333;
46381;PMS5003;66809;52.974;-2.514;2023-04-24T03:59:48;6.75;5.833333333333333;
46381;PMS5003;66809;52.974;-2.514;2023-04-24T04:01:48;6.766666666666667;5.816666666666666;
46381;PMS5003;66809;52.974;-2.514;2023-04-24T04:03:48;6.716666666666667;5.833333333333333;
46381;PMS5003;66809;52.974;-2.514;2023-04-24T04:05:48;6.766666666666667;5.85;
46381;PMS5003;66809;52.974;-2.514;2023-04-24T04:07:48;6.8;5.883333333333334;
46381;PMS5003;66809;52.974;-2.514;2023-04-24T04:09:48;6.65;5.783333333333333;
46381;PMS5003;66809;52.974;-2.514;2023-04-24T04:11:48;6.7;5.85;
46381;PMS5003;66809;52.974;-2.514;2023-04-24T04:13:48;6.733333333333333;5.85;
46381;PMS5003;66809;52.974;-2.514;2023-04-24T04:15:48;6.683333333333334;5.783333333333333;
46381;PMS5003;66809;52.974;-2.514;2023-04-24T04:17:48;6.6;5.733333333333333;
46381;PMS5003;66809;52.974;-2.514;2023-04-24T04:19:48;6.633333333333334;5.766666666666667;
46381;PMS5003;66809;52.974;-2.514;2023-04-24T04:21:48;6.6;5.75;
46381;PMS5003;66809;52.974;-2.514;2023-04-24T04:23:48;6.516666666666667;5.733333333333333;
46381;PMS5003;66809;52.974;-2.514;2023-04-24T04:25:48;6.5;5.65;
46381;PMS5003;66809;52.974;-2.514;2023-04-24T04:27:48;6.383333333333334;5.55;
46381;PMS5003;66809;52.974;-2.514;2023-04-24T04:29:48;6.5;5.6;
46381;PMS5003;66809;52.974;-2.514;2023-04-24T04:31:48;6.4;5.566666666666666;
46381;PMS5003;66809;52.974;-2.514;2023-04-24T04:33:48;6.383333333333334;5.55;
46381;PMS5003;66809;52.974;-2.514;2023-04-24T04:35:48;6.35;5.5;
46381;PMS5003;66809;52.974;-2.514;2023-04-24T04:37:49;6.25;5.5;
46381;PMS5003;66809;52.974;-2.514;2023-04-24T04:39:48;6.333333333333333;5.55;
46381;PMS5003;66809;52.974;-2.514;2023-04-24T04:41:48;6.35;5.55;
46381;PMS5003;66809;52.974;-2.514;2023-04-24T04:43:48;6.4;5.533333333333333;
46381;PMS5003;66809;52.974;-2.514;2023-04-24T04:45:48;6.333333333333333;5.516666666666667;
46381;PMS5003;66809;52.974;-2.514;2023-04-24T04:47:48;6.416666666666667;5.616666666666666;
46381;PMS5003;66809;52.974;-2.514;2023-04-24T04:49:48;6.45;5.633333333333334;
46381;PMS5003;66809;52.974;-2.514;2023-04-24T04:51:48;6.416666666666667;5.6;
46381;PMS5003;66809;52.974;-2.514;2023-04-24T04:53:48;6.466666666666667;5.666666666666667;
46381;PMS5003;66809;52.974;-2.514;2023-04-24T04:55:48;6.516666666666667;5.716666666666667;
46381;PMS5003;66809;52.974;-2.514;2023-04-24T04:57:48;6.5;5.75;
46381;PMS5003;66809;52.974;-2.514;2023-04-24T04:59:48;6.466666666666667;5.766666666666667;
46381;PMS5003;66809;52.974;-2.514;2023-04-24T05:01:48;6.466666666666667;5.75;
46381;PMS5003;66809;52.974;-2.514;2023-04-24T05:03:48;6.483333333333333;5.783333333333333;
46381;PMS5003;66809;52.974;-2.514;2023-04-24T05:05:49;6.45;5.75;
46381;PMS5003;66809;52.974;-2.514;2023-04-24T05:07:48;6.433333333333334;5.683333333333334;
46381;PMS5003;66809;52.974;-2.514;2023-04-24T05:09:48;6.383333333333334;5.616666666666666;
46381;PMS5003;66809;52.974;-2.514;2023-04-24T05:11:48;6.383333333333334;5.566666666666666;
46381;PMS5003;66809;52.974;-2.514;2023-04-24T05:13:48;6.35;5.566666666666666;
46381;PMS5003;66809;52.974;-2.514;2023-04-24T05:15:48;6.4;5.583333333333333;
46381;PMS5003;66809;52.974;-2.514;2023-04-24T05:17:48;6.35;5.55;
46381;PMS5003;66809;52.974;-2.514;2023-04-24T05:19:48;6.266666666666667;5.483333333333333;
46381;PMS5003;66809;52.974;-2.514;2023-04-24T05:21:48;6.216666666666667;5.433333333333334;
46381;PMS5003;66809;52.974;-2.514;2023-04-24T05:23:48;6.216666666666667;5.45;
46381;PMS5003;66809;52.974;-2.514;2023-04-24T05:25:48;6.3;5.583333333333333;
46381;PMS5003;66809;52.974;-2.514;2023-04-24T05:27:48;6.333333333333333;5.616666666666666;
46381;PMS5003;66809;52.974;-2.514;2023-04-24T05:29:49;6.233333333333333;5.566666666666666;
46381;PMS5003;66809;52.974;-2.514;2023-04-24T05:31:48;6.266666666666667;5.55;
46381;PMS5003;66809;52.974;-2.514;2023-04-24T05:33:48;6.283333333333333;5.566666666666666;
46381;PMS5003;66809;52.974;-2.514;2023-04-24T05:35:49;6.266666666666667;5.566666666666666;
46381;PMS5003;66809;52.974;-2.514;2023-04-24T05:37:48;6.3;5.583333333333333;
46381;PMS5003;66809;52.974;-2.514;2023-04-24T05:39:48;6.35;5.6;
46381;PMS5003;66809;52.974;-2.514;2023-04-24T05:41:48;6.333333333333333;5.616666666666666;
46381;PMS5003;66809;52.974;-2.514;2023-04-24T05:43:48;6.25;5.566666666666666;
46381;PMS5003;66809;52.974;-2.514;2023-04-24T05:45:48;6.183333333333334;5.516666666666667;
46381;PMS5003;66809;52.974;-2.514;2023-04-24T05:47:48;6.083333333333333;5.433333333333334;
46381;PMS5003;66809;52.974;-2.514;2023-04-24T05:49:48;6.016666666666667;5.366666666666666;
46381;PMS5003;66809;52.974;-2.514;2023-04-24T05:51:48;5.983333333333333;5.35;
46381;PMS5003;66809;52.974;-2.514;2023-04-24T05:53:49;5.9;5.266666666666667;
46381;PMS5003;66809;52.974;-2.514;2023-04-24T05:55:48;5.85;5.216666666666667;
46381;PMS5003;66809;52.974;-2.514;2023-04-24T05:57:48;5.833333333333333;5.2;
46381;PMS5003;66809;52.974;-2.514;2023-04-24T05:59:48;5.816666666666666;5.15;
46381;PMS5003;66809;52.974;-2.514;2023-04-24T06:01:48;5.833333333333333;5.166666666666667;
46381;PMS5003;66809;52.974;-2.514;2023-04-24T06:03:49;5.8;5.116666666666666;
46381;PMS5003;66809;52.974;-2.514;2023-04-24T06:05:49;5.8;5.133333333333334;
46381;PMS5003;66809;52.974;-2.514;2023-04-24T06:07:48;5.766666666666667;5.133333333333334;
46381;PMS5003;66809;52.974;-2.514;2023-04-24T06:09:48;5.833333333333333;5.216666666666667;
46381;PMS5003;66809;52.974;-2.514;2023-04-24T06:11:48;5.75;5.2;
46381;PMS5003;66809;52.974;-2.514;2023-04-24T06:13:48;5.783333333333333;5.2;
46381;PMS5003;66809;52.974;-2.514;2023-04-24T06:15:49;5.8;5.25;
46381;PMS5003;66809;52.974;-2.514;2023-04-24T06:17:48;5.716666666666667;5.2;
46381;PMS5003;66809;52.974;-2.514;2023-04-24T06:19:48;5.716666666666667;5.15;
46381;PMS5003;66809;52.974;-2.514;2023-04-24T06:21:48;5.733333333333333;5.15;
46381;PMS5003;66809;52.974;-2.514;2023-04-24T06:23:48;5.716666666666667;5.116666666666666;
46381;PMS5003;66809;52.974;-2.514;2023-04-24T06:25:49;5.616666666666666;5.016666666666667;
46381;PMS5003;66809;52.974;-2.514;2023-04-24T06:27:48;5.55;4.95;
46381;PMS5003;66809;52.974;-2.514;2023-04-24T06:29:48;5.5;4.916666666666667;
46381;PMS5003;66809;52.974;-2.514;2023-04-24T06:31:48;5.383333333333334;4.833333333333333;
46381;PMS5003;66809;52.974;-2.514;2023-04-24T06:33:48;5.366666666666666;4.8;
46381;PMS5003;66809;52.974;-2.514;2023-04-24T06:35:48;5.3;4.75;
46381;PMS5003;66809;52.974;-2.514;2023-04-24T06:37:48;5.3;4.716666666666667;
46381;PMS5003;66809;52.974;-2.514;2023-04-24T06:39:48;5.233333333333333;4.666666666666667;
46381;PMS5003;66809;52.974;-2.514;2023-04-24T06:41:48;5.183333333333334;4.633333333333334;
46381;PMS5003;66809;52.974;-2.514;2023-04-24T06:43:48;5.133333333333334;4.616666666666666;
46381;PMS5003;66809;52.974;-2.514;2023-04-24T06:45:48;5.133333333333334;4.616666666666666;
46381;PMS5003;66809;52.974;-2.514;2023-04-24T06:47:48;5.116666666666666;4.566666666666666;
46381;PMS5003;66809;52.974;-2.514;2023-04-24T06:49:48;5.1;4.55;
46381;PMS5003;66809;52.974;-2.514;2023-04-24T06:51:48;5.183333333333334;4.6;
46381;PMS5003;66809;52.974;-2.514;2023-04-24T06:53:48;5.15;4.583333333333333;
46381;PMS5003;66809;52.974;-2.514;2023-04-24T06:55:48;5.15;4.516666666666667;
46381;PMS5003;66809;52.974;-2.514;2023-04-24T06:57:49;5.183333333333334;4.466666666666667;
46381;PMS5003;66809;52.974;-2.514;2023-04-24T06:59:48;5.166666666666667;4.483333333333333;
46381;PMS5003;66809;52.974;-2.514;2023-04-24T07:01:48;5.15;4.516666666666667;
46381;PMS5003;66809;52.974;-2.514;2023-04-24T07:03:48;5.2;4.516666666666667;
46381;PMS5003;66809;52.974;-2.514;2023-04-24T07:05:48;5.2;4.45;
46381;PMS5003;66809;52.974;-2.514;2023-04-24T07:07:49;5.166666666666667;4.366666666666666;
46381;PMS5003;66809;52.974;-2.514;2023-04-24T07:09:48;5.116666666666666;4.25;
46381;PMS5003;66809;52.974;-2.514;2023-04-24T07:11:48;5.1;4.216666666666667;
46381;PMS5003;66809;52.974;-2.514;2023-04-24T07:13:48;4.983333333333333;4.116666666666666;
46381;PMS5003;66809;52.974;-2.514;2023-04-24T07:15:48;5.066666666666666;4.183333333333334;
46381;PMS5003;66809;52.974;-2.514;2023-04-24T07:17:48;5.166666666666667;4.25;
46381;PMS5003;66809;52.974;-2.514;2023-04-24T07:19:48;5.233333333333333;4.316666666666666;
46381;PMS5003;66809;52.974;-2.514;2023-04-24T07:21:48;5.333333333333333;4.416666666666667;
46381;PMS5003;66809;52.974;-2.514;2023-04-24T07:23:49;5.433333333333334;4.466666666666667;
46381;PMS5003;66809;52.974;-2.514;2023-04-24T07:25:48;5.45;4.5;
46381;PMS5003;66809;52.974;-2.514;2023-04-24T07:27:48;5.533333333333333;4.533333333333333;
46381;PMS5003;66809;52.974;-2.514;2023-04-24T07:29:48;5.55;4.516666666666667;
46381;PMS5003;66809;52.974;-2.514;2023-04-24T07:31:48;5.55;4.533333333333333;
46381;PMS5003;66809;52.974;-2.514;2023-04-24T07:33:49;5.6;4.566666666666666;
46381;PMS5003;66809;52.974;-2.514;2023-04-24T07:35:48;5.666666666666667;4.65;
46381;PMS5003;66809;52.974;-2.514;2023-04-24T07:37:48;5.616666666666666;4.65;
46381;PMS5003;66809;52.974;-2.514;2023-04-24T07:39:48;5.566666666666666;4.616666666666666;
46381;PMS5003;66809;52.974;-2.514;2023-04-24T07:41:48;5.533333333333333;4.566666666666666;
46381;PMS5003;66809;52.974;-2.514;2023-04-24T07:43:48;5.616666666666666;4.6;
46381;PMS5003;66809;52.974;-2.514;2023-04-24T07:45:48;5.65;4.566666666666666;
46381;PMS5003;66809;52.974;-2.514;2023-04-24T07:47:48;5.566666666666666;4.516666666666667;
46381;PMS5003;66809;52.974;-2.514;2023-04-24T07:49:48;5.533333333333333;4.483333333333333;
46381;PMS5003;66809;52.974;-2.514;2023-04-24T07:51:48;5.45;4.416666666666667;
46381;PMS5003;66809;52.974;-2.514;2023-04-24T07:53:48;5.45;4.4;
46381;PMS5003;66809;52.974;-2.514;2023-04-24T07:55:48;5.383333333333334;4.4;
46381;PMS5003;66809;52.974;-2.514;2023-04-24T07:57:48;5.3;4.383333333333334;
46381;PMS5003;66809;52.974;-2.514;2023-04-24T07:59:48;5.283333333333333;4.35;
46381;PMS5003;66809;52.974;-2.514;2023-04-24T08:01:48;5.2;4.266666666666667;
46381;PMS5003;66809;52.974;-2.514;2023-04-24T08:03:48;5.1;4.233333333333333;
46381;PMS5003;66809;52.974;-2.514;2023-04-24T08:05:48;5.033333333333333;4.25;
46381;PMS5003;66809;52.974;-2.514;2023-04-24T08:07:48;5.1;4.333333333333333;
46381;PMS5003;66809;52.974;-2.514;2023-04-24T08:09:48;5.083333333333333;4.366666666666666;
46381;PMS5003;66809;52.974;-2.514;2023-04-24T08:11:49;5.1;4.383333333333334;
46381;PMS5003;66809;52.974;-2.514;2023-04-24T08:13:48;5.016666666666667;4.316666666666666;
46381;PMS5003;66809;52.974;-2.514;2023-04-24T08:15:48;4.85;4.166666666666667;
46381;PMS5003;66809;52.974;-2.514;2023-04-24T08:17:48;4.75;4.066666666666666;
46381;PMS5003;66809;52.974;-2.514;2023-04-24T08:19:48;4.6;3.966666666666667;
46381;PMS5003;66809;52.974;-2.514;2023-04-24T08:21:49;4.416666666666667;3.7666666666666666;
46381;PMS5003;66809;52.974;-2.514;2023-04-24T08:23:48;4.283333333333333;3.683333333333333;
46381;PMS5003;66809;52.974;-2.514;2023-04-24T08:25:48;4.333333333333333;3.6333333333333333;
46381;PMS5003;66809;52.974;-2.514;2023-04-24T08:27:48;4.3;3.55;
46381;PMS5003;66809;52.974;-2.514;2023-04-24T08:29:48;4.25;3.5166666666666666;
46381;PMS5003;66809;52.974;-2.514;2023-04-24T08:31:48;4.2;3.466666666666667;
46381;PMS5003;66809;52.974;-2.514;2023-04-24T08:33:48;4.15;3.4166666666666665;
46381;PMS5003;66809;52.974;-2.514;2023-04-24T08:35:49;4.1;3.35;
46381;PMS5003;66809;52.974;-2.514;2023-04-24T08:37:48;4.083333333333333;3.3;
46381;PMS5003;66809;52.974;-2.514;2023-04-24T08:39:48;4.066666666666666;3.283333333333333;
46381;PMS5003;66809;52.974;-2.514;2023-04-24T08:41:48;4.066666666666666;3.283333333333333;
46381;PMS5003;66809;52.974;-2.514;2023-04-24T08:43:48;3.9833333333333334;3.25;
46381;PMS5003;66809;52.974;-2.514;2023-04-24T08:45:48;3.933333333333333;3.2333333333333334;
46381;PMS5003;66809;52.974;-2.514;2023-04-24T08:47:48;4.016666666666667;3.283333333333333;
46381;PMS5003;66809;52.974;-2.514;2023-04-24T08:49:49;4.083333333333333;3.316666666666667;
46381;PMS5003;66809;52.974;-2.514;2023-04-24T08:51:48;4.066666666666666;3.316666666666667;
46381;PMS5003;66809;52.974;-2.514;2023-04-24T08:53:48;4.066666666666666;3.3333333333333335;
46381;PMS5003;66809;52.974;-2.514;2023-04-24T08:55:48;4.116666666666666;3.35;
46381;PMS5003;66809;52.974;-2.514;2023-04-24T08:57:50;4.15;3.4;
46381;PMS5003;66809;52.974;-2.514;2023-04-24T08:59:48;4.15;3.3833333333333333;
46381;PMS5003;66809;52.974;-2.514;2023-04-24T09:01:48;4.216666666666667;3.4166666666666665;
46381;PMS5003;66809;52.974;-2.514;2023-04-24T09:03:48;4.3;3.45;
46381;PMS5003;66809;52.974;-2.514;2023-04-24T09:05:48;4.316666666666666;3.466666666666667;
46381;PMS5003;66809;52.974;-2.514;2023-04-24T09:07:49;4.25;3.4166666666666665;
46381;PMS5003;66809;52.974;-2.514;2023-04-24T09:09:48;4.35;3.4833333333333334;
46381;PMS5003;66809;52.974;-2.514;2023-04-24T09:11:48;4.45;3.4833333333333334;
46381;PMS5003;66809;52.974;-2.514;2023-04-24T09:13:48;4.616666666666666;3.6333333333333333;
46381;PMS5003;66809;52.974;-2.514;2023-04-24T09:15:48;4.65;3.683333333333333;
46381;PMS5003;66809;52.974;-2.514;2023-04-24T09:17:48;4.716666666666667;3.75;
46381;PMS5003;66809;52.974;-2.514;2023-04-24T09:19:48;4.85;3.8666666666666667;
46381;PMS5003;66809;52.974;-2.514;2023-04-24T09:21:48;5.05;4.016666666666667;
46381;PMS5003;66809;52.974;-2.514;2023-04-24T09:23:57;5.133333333333334;4.083333333333333;
46381;PMS5003;66809;52.974;-2.514;2023-04-24T09:25:48;5.116666666666666;4.15;
46381;PMS5003;66809;52.974;-2.514;2023-04-24T09:27:48;5.233333333333333;4.3;
46381;PMS5003;66809;52.974;-2.514;2023-04-24T09:29:55;5.35;4.416666666666667;
46381;PMS5003;66809;52.974;-2.514;2023-04-24T09:31:48;5.516666666666667;4.466666666666667;
46381;PMS5003;66809;52.974;-2.514;2023-04-24T09:33:53;5.533333333333333;4.466666666666667;
46381;PMS5003;66809;52.974;-2.514;2023-04-24T09:35:49;5.65;4.483333333333333;
46381;PMS5003;66809;52.974;-2.514;2023-04-24T09:37:48;5.7;4.55;
46381;PMS5003;66809;52.974;-2.514;2023-04-24T09:39:51;5.783333333333333;4.566666666666666;
46381;PMS5003;66809;52.974;-2.514;2023-04-24T09:41:49;5.833333333333333;4.616666666666666;
46381;PMS5003;66809;52.974;-2.514;2023-04-24T09:43:48;5.983333333333333;4.65;
46381;PMS5003;66809;52.974;-2.514;2023-04-24T09:45:48;6.15;4.75;